Flight Track Log - Related Links

Times and Time Zones

All times are in EDT time to prevent confusion due to time zone crossing. See the EGF3046 flight status page for this flight to view local times or setup timezone preferences in your user account.


Time Position Orientation Groundspeed Altitude Reporting Facility
EDT Latitude Longitude Course Direction KTS MPH feet Rate Location/Type
Wed 03:25:33 PM 41.9667 -87.9500 66° East 186 214 2,000  Level Chicago TRACON
Wed 03:26:39 PM 42.0167 -87.9500 360° North 219 252 4,000 1,476 Climbing Chicago TRACON
Wed 03:27:00 PM 42.1051 -87.5177 59° Northeast  Level FlightAware Approximate
Wed 03:27:39 PM 42.0833 -87.8833 37° Northeast 267 307 5,100  Level Chicago TRACON
Wed 03:28:00 PM 42.1587 -87.3908 66° East  Level FlightAware Approximate
Wed 03:28:28 PM 42.1197 -87.8400 41° Northeast 260 299 6,600  Level Chicago Center
Wed 03:29:00 PM 42.2032 -87.2573 66° East  Level FlightAware Approximate
Wed 03:29:31 PM 42.1656 -87.7597 52° Northeast 286 329 8,700  Level Chicago Center
Wed 03:30:00 PM 42.2477 -87.1238 66° East  Level FlightAware Approximate
Wed 03:30:33 PM 42.1858 -87.6314 78° East 303 349 10,700  Level Chicago Center
Wed 03:31:35 PM 42.2058 -87.5108 77° East 326 375 12,000 1,258 Climbing Chicago Center
Wed 03:32:37 PM 42.2272 -87.3794 78° East 354 407 13,300 1,355 Climbing Chicago Center
Wed 03:33:39 PM 42.2489 -87.2456 78° East 366 421 14,800 1,452 Climbing Chicago Center
Wed 03:34:41 PM 42.2711 -87.1111 77° East 367 422 16,300 1,500 Climbing Chicago Center
Wed 03:35:43 PM 42.2850 -86.9506 83° East 376 433 17,900 1,403 Climbing Chicago Center
Wed 03:36:45 PM 42.2894 -86.8069 88° East 382 440 19,200 1,200 Climbing Chicago Center
Wed 03:37:48 PM 42.2947 -86.6586 87° East 393 452 20,400 1,152 Climbing Chicago Center
Wed 03:38:50 PM 42.3003 -86.5161 87° East 402 463 21,600 1,306 Climbing Chicago Center
Wed 03:39:52 PM 42.3067 -86.3328 87° East 408 470 23,100 1,355 Climbing Chicago Center
Wed 03:40:54 PM 42.3117 -86.1794 87° East 411 473 24,400 1,210 Climbing Chicago Center
Wed 03:41:56 PM 42.3150 -86.0236 88° East 417 480 25,600 1,210 Climbing Chicago Center
Wed 03:42:58 PM 42.3119 -85.8661 91° East 422 486 26,900 1,210 Climbing Chicago Center
Wed 03:44:00 PM 42.3103 -85.7086 91° East 423 487 28,100 1,306 Climbing Chicago Center
Wed 03:45:02 PM 42.3078 -85.5178 91° East 425 489 29,600 1,306 Climbing Chicago Center
Wed 03:46:04 PM 42.3056 -85.3594 91° East 425 489 30,800 672 Climbing Chicago Center
Wed 03:47:07 PM 42.3028 -85.1956 91° East 434 499 31,000 96 Climbing Chicago Center
Wed 03:48:09 PM 42.2994 -85.0194 91° East 463 533 31,000  Level Chicago Center
Wed 03:49:11 PM 42.2956 -84.8364 92° East 485 558 31,000  Level Chicago Center
Wed 03:50:13 PM 42.3061 -84.6200 86° East 484 557 31,000  Level Chicago Center
Wed 03:51:15 PM 42.3175 -84.4386 85° East 486 559 31,000  Level Chicago Center
Wed 03:52:17 PM 42.3328 -84.2644 83° East 472 543 31,000  Level Chicago Center
Wed 03:53:16 PM 42.3500 -84.1008 82° East 474 545 31,000  Level Cleveland Center
Wed 03:54:16 PM 42.3719 -83.9278 80° East 474 545 31,000  Level Cleveland Center
Wed 03:55:16 PM 42.3914 -83.7572 81° East 474 545 31,000  Level Cleveland Center
Wed 03:56:16 PM 42.3983 -83.5778 87° East 467 537 31,000  Level Cleveland Center
Wed 03:57:16 PM 42.4028 -83.4008 88° East 460 529 31,000  Level Cleveland Center
Wed 03:58:16 PM 42.4089 -83.2267 87° East 460 529 31,000  Level Cleveland Center
Wed 03:59:16 PM 42.4150 -83.0469 87° East 468 539 31,000  Level Cleveland Center
Wed 04:00:16 PM 42.4208 -82.8700 87° East 468 539 31,000  Level Cleveland Center
Wed 04:01:16 PM 42.4264 -82.6900 88° East 468 539 31,000  Level Cleveland Center
Wed 04:02:16 PM 42.4336 -82.5131 87° East 468 539 31,000  Level Cleveland Center
Wed 04:03:16 PM 42.4364 -82.3358 89° East 473 544 31,000  Level Cleveland Center
Wed 04:04:16 PM 42.4431 -82.1561 87° East 473 544 31,000  Level Cleveland Center
Wed 04:05:16 PM 42.4497 -81.9619 87° East 473 544 31,000  Level Cleveland Center
Wed 04:06:16 PM 42.4539 -81.7847 88° East 473 544 31,000  Level Cleveland Center
Wed 04:07:16 PM 42.4578 -81.6075 88° East 473 544 31,000  Level Cleveland Center
Wed 04:08:16 PM 42.4633 -81.4331 87° East 468 539 31,000  Level Cleveland Center
Wed 04:09:16 PM 42.4667 -81.2586 88° East 468 539 31,000  Level Cleveland Center
Wed 04:10:16 PM 42.4694 -81.1039 89° East 458 527 31,000  Level Cleveland Center
Wed 04:11:16 PM 42.4722 -80.9267 89° East 458 527 31,000  Level Cleveland Center
Wed 04:12:16 PM 42.4767 -80.7550 88° East 458 527 31,000  Level Cleveland Center
Wed 04:13:16 PM 42.4811 -80.5803 88° East 458 527 31,000  Level Cleveland Center
Wed 04:14:16 PM 42.4831 -80.4086 89° East 458 527 31,000  Level Cleveland Center
Wed 04:15:16 PM 42.4847 -80.2200 89° East 458 527 31,000  Level Cleveland Center
Wed 04:16:16 PM 42.4839 -80.0483 90° East 458 527 31,000 -100 Level Cleveland Center
Wed 04:17:16 PM 42.4872 -79.8736 88° East 458 527 30,800 -500 Descending Cleveland Center
Wed 04:18:16 PM 42.4861 -79.6936 90° East 463 533 30,000 -800 Descending Cleveland Center
Wed 04:19:16 PM 42.4886 -79.5075 89° East 476 548 29,200 -750 Descending Cleveland Center
Wed 04:20:16 PM 42.4889 -79.3247 90° East 481 554 28,500 -600 Descending Cleveland Center
Wed 04:21:16 PM 42.5200 -79.1436 77° East 487 560 28,000 -250 Descending Cleveland Center
Wed 04:22:16 PM 42.5572 -78.9708 74° East 482 555 28,000  Level Cleveland Center
Wed 04:23:16 PM 42.5922 -78.7953 75° East 477 549 28,000 -300 Level Cleveland Center
Wed 04:24:16 PM 42.6231 -78.6361 75° East 477 549 27,400 -700 Descending Cleveland Center
Wed 04:25:16 PM 42.6597 -78.4656 74° East 477 549 26,600 -800 Descending Cleveland Center
Wed 04:26:16 PM 42.6939 -78.2922 75° East 477 549 25,800 -800 Descending Cleveland Center
Wed 04:27:16 PM 42.7278 -78.1186 75° East 477 549 25,000 -800 Descending Cleveland Center
Wed 04:28:16 PM 42.7617 -77.9475 75° East 477 549 24,200 -800 Descending Cleveland Center
Wed 04:29:16 PM 42.7953 -77.7847 74° East 458 527 23,400 -850 Descending Cleveland Center
Wed 04:30:16 PM 42.8286 -77.6192 75° East 458 527 22,500 -1,000 Descending Cleveland Center
Wed 04:31:16 PM 42.8597 -77.4561 75° East 453 521 21,400 -1,800 Descending Cleveland Center
Wed 04:32:16 PM 42.8906 -77.2931 75° East 448 516 18,900 -2,477 Descending Cleveland Center
Wed 04:34:08 PM 42.9442 -77.0131 75° East 389 448 14,300 -2,477 Descending Boston Center
Wed 04:35:08 PM 42.9711 -76.8589 77° East 387 445 11,800 -1,934 Descending Boston Center
Wed 04:36:09 PM 43.0031 -76.7333 71° East 338 389 10,400 -1,559 Descending Boston Center
Wed 04:37:15 PM 43.0367 -76.6192 68° East 290 334 8,500 -2,079 Descending Boston Center
Wed 04:38:16 PM 43.0672 -76.5189 67° East 281 323 6,000 -2,115 Descending Boston Center
Wed 04:39:17 PM 43.0936 -76.4269 69° East 271 312 4,200 -1,426 Descending Boston Center
Wed 04:40:18 PM 43.1014 -76.3222 84° East 246 283 3,100 -1,140 Descending Boston Center
Wed 04:41:18 PM 43.1019 -76.2369 89° East 219 252 1,900 -1,000 Descending Boston Center
Wed 04:42:18 PM 43.1061 -76.1744 85° East 146 168 1,100 -800 Descending Boston Center

Login

Don't have an account? Register now (free) for customized features, flight alerts, and more!